Terminal Aerodrome Forecast
Issued by NWS

Home | Current Version | Previous Version | Text Only | Print | Product List | Glossary On
Versions: 1 2 3 4 5 6 7 8 9 10 11 12 13 14 15 16 17 18 19 20
000
FTUS43 KBIS 280138 AAA
TAFDIK
TAF AMD
KDIK 280138Z 2802/2824 15016KT P6SM VCTS BKN100CB
      TEMPO 2802/2804 VRB25G40KT 2SM TSRA BKN025CB
     FM280500 27018G30KT P6SM VCSH BKN035
     FM281500 26035G48KT P6SM BKN050=

USA.gov is the U.S. government's official web portal to all federal, state and local government web resources and services.